Time;durP1;ratioP1;P1;durP2;ratioP2;P2;SDS_P1;SDS_P2;PMS_P1;PMS_P2;Temp;Humidity;BMP_temperature;BMP_pressure;BME280_temperature;BME280_humidity;BME280_pressure;Samples;Min_cycle;Max_cycle;Signal;HPM_P1;HPM_P2
2021/12/16 00:08:29;;;;;;;38.92;13.20;;;;;;;5.40;78.80;101653.67;1882611;76;21043;-60
2021/12/16 00:11:04;;;;;;;30.60;10.68;;;;;;;5.37;78.91;101653.67;1880761;76;21062;-60
2021/12/16 00:30:12;;;;;;;34.00;12.82;;;;;;;5.30;79.01;101662.39;1915271;75;21011;-61
2021/12/16 00:33:09;;;;;;;33.95;12.30;;;;;;;5.29;79.02;101653.25;1914103;75;21430;-60
2021/12/16 00:35:19;;;;;;;22.95;8.73;;;;;;;5.31;78.97;101651.09;1910963;74;21109;-61
2021/12/16 00:37:48;;;;;;;38.95;13.22;;;;;;;5.31;78.94;101653.70;1915421;75;21055;-61
2021/12/16 00:40:17;;;;;;;30.90;11.05;;;;;;;5.30;78.90;101651.08;1915172;75;21094;-60
2021/12/16 00:42:51;;;;;;;29.85;12.55;;;;;;;5.30;78.87;101650.64;1915405;75;21087;-60
2021/12/16 00:45:37;;;;;;;18.45;7.72;;;;;;;5.28;78.96;101651.08;1914828;75;21086;-60
2021/12/16 00:48:20;;;;;;;32.40;11.48;;;;;;;5.24;79.00;101653.28;1882454;76;21129;-60
2021/12/16 00:55:56;;;;;;;22.42;8.00;;;;;;;5.20;79.01;101639.77;1915394;74;21019;-60
2021/12/16 00:58:34;;;;;;;30.60;12.23;;;;;;;5.15;79.17;101637.63;1915553;75;21039;-59
2021/12/16 01:01:12;;;;;;;19.98;7.78;;;;;;;5.14;79.22;101642.41;1914943;74;21043;-63
2021/12/16 01:03:44;;;;;;;34.90;12.80;;;;;;;5.11;79.41;101642.40;1913996;75;21043;-62
2021/12/16 01:06:28;;;;;;;35.03;13.10;;;;;;;5.08;79.43;101644.59;1915709;75;21147;-64
2021/12/16 01:09:07;;;;;;;31.97;12.55;;;;;;;5.08;79.53;101646.34;1915901;75;21556;-63
2021/12/16 01:49:59;;;;;;;28.23;9.68;;;;;;;4.90;79.88;101645.92;1903041;75;21059;-63
2021/12/16 01:57:41;;;;;;;33.05;12.33;;;;;;;4.87;79.97;101646.81;1903155;75;21032;-60
2021/12/16 02:00:09;;;;;;;31.90;12.00;;;;;;;4.87;80.01;101644.20;1902604;75;21517;-61
2021/12/16 02:02:46;;;;;;;21.62;8.45;;;;;;;4.84;80.19;101655.94;1902349;75;21189;-64
2021/12/16 02:05:23;;;;;;;37.10;12.00;;;;;;;4.83;80.23;101651.58;1902786;75;21089;-61
2021/12/16 02:10:33;;;;;;;34.20;13.80;;;;;;;4.78;80.26;101649.42;1858102;77;21102;-63
2021/12/16 02:13:32;;;;;;;19.80;7.10;;;;;;;4.75;80.42;101646.81;1857753;76;21102;-64
2021/12/16 02:32:46;;;;;;;29.50;10.85;;;;;;;4.79;80.31;101640.71;1857975;77;21031;-62
2021/12/16 02:37:44;;;;;;;31.57;11.20;;;;;;;4.79;80.47;101649.84;1858073;77;21439;-63
2021/12/16 02:40:09;;;;;;;31.82;10.90;;;;;;;4.75;80.52;101645.50;1857375;76;21037;-62
2021/12/16 02:42:52;;;;;;;31.17;11.40;;;;;;;4.74;80.58;101646.36;1858039;77;21149;-63
2021/12/16 02:50:45;;;;;;;32.58;12.35;;;;;;;4.69;80.78;101650.73;1827412;78;21044;-64
2021/12/16 02:53:14;;;;;;;14.50;6.95;;;;;;;4.70;80.80;101654.63;1827302;78;21071;-62
2021/12/16 02:55:43;;;;;;;26.75;10.72;;;;;;;4.69;80.89;101657.26;1827305;78;21613;-64
2021/12/16 02:58:12;;;;;;;36.55;12.58;;;;;;;4.66;81.09;101662.47;1827432;78;21612;-65
2021/12/16 03:00:46;;;;;;;35.58;11.60;;;;;;;4.65;81.14;101666.82;1854605;77;21169;-65
2021/12/16 03:03:16;;;;;;;26.07;9.98;;;;;;;4.67;81.04;101670.70;1858008;77;21044;-64
2021/12/16 03:05:45;;;;;;;24.02;9.55;;;;;;;4.67;81.09;101663.77;1858018;77;21458;-65
2021/12/16 03:08:14;;;;;;;36.93;8.85;;;;;;;4.66;81.21;101665.07;1883756;75;21507;-65
2021/12/16 03:11:07;;;;;;;29.50;11.48;;;;;;;4.67;81.18;101661.16;1885073;76;21449;-64
2021/12/16 03:13:39;;;;;;;30.95;9.80;;;;;;;4.72;81.07;101663.76;1884549;76;21529;-66
2021/12/16 03:16:21;;;;;;;44.03;15.53;;;;;;;4.75;80.93;101667.68;1884655;76;21112;-62
2021/12/16 03:18:48;;;;;;;29.25;11.83;;;;;;;4.72;81.02;101661.15;1883049;76;21058;-61
2021/12/16 03:21:38;;;;;;;21.60;9.43;;;;;;;4.69;81.16;101666.39;1884122;75;21038;-62
2021/12/16 03:26:36;;;;;;;24.82;7.95;;;;;;;4.68;81.23;101664.63;1885427;76;21062;-63
2021/12/16 03:34:42;;;;;;;43.80;14.95;;;;;;;4.67;81.22;101670.70;1853831;77;21022;-63
2021/12/16 03:39:45;;;;;;;30.17;10.85;;;;;;;4.68;81.19;101667.24;1853729;77;21045;-62
2021/12/16 03:42:17;;;;;;;36.42;12.10;;;;;;;4.67;81.26;101662.88;1883180;76;21042;-62
2021/12/16 03:44:55;;;;;;;22.80;9.10;;;;;;;4.66;81.33;101668.55;1885296;76;21453;-62
2021/12/16 03:47:23;;;;;;;24.18;9.23;;;;;;;4.64;81.44;101677.67;1884475;76;21480;-63
2021/12/16 03:49:53;;;;;;;37.60;12.23;;;;;;;4.64;81.40;101675.50;1885189;76;21030;-64
2021/12/16 03:52:24;;;;;;;44.05;16.62;;;;;;;4.67;81.27;101680.73;1885468;76;21393;-64
2021/12/16 03:54:55;;;;;;;33.80;10.32;;;;;;;4.72;81.17;101680.72;1885120;76;21538;-63
2021/12/16 03:57:29;;;;;;;34.10;10.93;;;;;;;4.75;81.06;101673.77;1885232;76;21007;-61
2021/12/16 03:59:59;;;;;;;39.42;13.20;;;;;;;4.79;80.94;101678.55;1885245;76;21199;-61
2021/12/16 04:02:46;;;;;;;32.25;11.57;;;;;;;4.77;80.89;101672.02;1882594;76;21100;-63
2021/12/16 04:05:18;;;;;;;30.43;11.90;;;;;;;4.81;80.80;101672.89;1885201;74;21506;-64
2021/12/16 04:07:48;;;;;;;27.73;9.23;;;;;;;4.82;80.74;101674.64;1898026;75;21065;-64
2021/12/16 04:10:26;;;;;;;18.15;7.08;;;;;;;4.83;80.79;101685.09;1877413;76;21130;-62
2021/12/16 04:12:55;;;;;;;28.62;10.95;;;;;;;4.81;80.85;101686.83;1911583;74;21032;-64
2021/12/16 04:15:26;;;;;;;23.18;8.98;;;;;;;4.77;80.88;101692.03;1911682;75;21478;-61
2021/12/16 04:17:55;;;;;;;20.10;7.53;;;;;;;4.70;80.95;101683.77;1911770;75;21059;-61
2021/12/16 04:20:27;;;;;;;23.20;7.90;;;;;;;4.67;81.00;101690.27;1911625;74;21146;-62
2021/12/16 04:22:57;;;;;;;29.15;10.10;;;;;;;4.62;81.09;101691.15;1911957;75;21011;-62
2021/12/16 04:25:30;;;;;;;20.70;8.73;;;;;;;4.57;81.14;101697.23;1911749;75;21445;-63
2021/12/16 04:28:03;;;;;;;31.55;12.18;;;;;;;4.51;81.27;101692.88;1911480;74;21090;-62
2021/12/16 04:30:33;;;;;;;27.73;10.30;;;;;;;4.49;81.29;101690.70;1894025;75;21458;-63
2021/12/16 04:33:04;;;;;;;32.70;11.28;;;;;;;4.46;81.42;101686.78;1877777;76;21072;-62
2021/12/16 04:35:35;;;;;;;28.17;9.80;;;;;;;4.47;81.39;101680.71;1911918;75;21011;-63
2021/12/16 04:38:07;;;;;;;28.38;9.45;;;;;;;4.51;81.31;101681.14;1911702;74;21548;-63
2021/12/16 04:40:38;;;;;;;33.70;10.68;;;;;;;4.52;81.32;101678.98;1911767;75;21035;-63
2021/12/16 04:43:09;;;;;;;20.50;7.80;;;;;;;4.50;81.36;101682.44;1911898;75;21167;-62
2021/12/16 04:45:52;;;;;;;42.35;13.08;;;;;;;4.49;81.47;101676.36;1892918;74;21051;-62
2021/12/16 04:48:22;;;;;;;42.62;13.13;;;;;;;4.47;81.55;101672.02;1911832;75;21051;-63
2021/12/16 04:50:52;;;;;;;32.00;10.23;;;;;;;4.46;81.62;101678.95;1911840;74;21545;-63
2021/12/16 04:53:22;;;;;;;43.13;13.08;;;;;;;4.46;81.65;101678.95;1912067;75;21039;-63
2021/12/16 04:55:53;;;;;;;17.42;8.20;;;;;;;4.45;81.68;101672.88;1911809;74;21059;-62
2021/12/16 04:58:23;;;;;;;22.67;9.13;;;;;;;4.50;81.61;101680.72;1877822;76;21115;-65
2021/12/16 05:00:53;;;;;;;33.18;11.53;;;;;;;4.51;81.55;101679.84;1911736;74;21511;-65
2021/12/16 05:03:27;;;;;;;36.03;12.05;;;;;;;4.48;81.60;101677.66;1911245;74;21059;-62
2021/12/16 05:05:56;;;;;;;30.72;9.48;;;;;;;4.44;81.70;101672.87;1911899;75;21130;-61
2021/12/16 05:08:26;;;;;;;40.30;12.18;;;;;;;4.44;81.69;101674.17;1907814;75;21153;-61
2021/12/16 05:10:59;;;;;;;32.20;9.70;;;;;;;4.43;81.66;101678.97;1902027;75;21054;-62
2021/12/16 05:13:28;;;;;;;23.22;8.45;;;;;;;4.43;81.76;101679.83;1902980;75;21133;-62
2021/12/16 05:16:02;;;;;;;31.00;12.50;;;;;;;4.43;81.74;101681.14;1903150;75;21007;-61
2021/12/16 05:18:34;;;;;;;18.77;9.03;;;;;;;4.45;81.71;101683.75;1903262;75;21109;-61
2021/12/16 05:21:09;;;;;;;28.92;11.05;;;;;;;4.45;81.85;101678.54;1903147;75;21574;-62
2021/12/16 05:26:26;;;;;;;23.18;7.53;;;;;;;4.46;81.89;101675.05;1903085;75;21059;-62
2021/12/16 05:29:03;;;;;;;25.45;8.93;;;;;;;4.44;81.85;101672.87;1901684;75;21079;-61
2021/12/16 05:31:32;;;;;;;25.77;10.45;;;;;;;4.44;81.92;101673.77;1903112;75;21093;-62
2021/12/16 05:34:02;;;;;;;21.45;8.20;;;;;;;4.45;81.89;101677.23;1902999;75;21031;-63
2021/12/16 05:36:33;;;;;;;37.80;12.93;;;;;;;4.47;81.88;101672.89;1903235;75;21154;-63
2021/12/16 05:39:02;;;;;;;22.30;8.68;;;;;;;4.49;81.79;101667.23;1903030;75;21113;-63
2021/12/16 05:41:33;;;;;;;37.53;14.40;;;;;;;4.50;81.75;101670.70;1902046;75;21485;-62
2021/12/16 05:44:02;;;;;;;18.95;8.10;;;;;;;4.52;81.69;101675.07;1903078;75;21015;-62
2021/12/16 05:46:31;;;;;;;39.67;13.95;;;;;;;4.52;81.70;101672.88;1892632;75;21165;-64
2021/12/16 05:49:02;;;;;;;28.27;10.63;;;;;;;4.49;81.61;101665.93;1885710;76;21767;-63
2021/12/16 05:51:49;;;;;;;26.93;9.18;;;;;;;4.47;81.57;101669.42;1900387;74;21047;-63
2021/12/16 05:54:20;;;;;;;12.63;5.58;;;;;;;4.49;81.49;101663.32;1874675;74;21396;-62
2021/12/16 05:56:56;;;;;;;27.62;10.13;;;;;;;4.49;81.40;101667.23;1874519;74;21113;-63
2021/12/16 05:59:26;;;;;;;36.03;14.13;;;;;;;4.48;81.36;101666.78;1874392;75;21557;-64
2021/12/16 06:01:55;;;;;;;17.48;9.40;;;;;;;4.49;81.35;101664.63;1877752;75;21032;-60
2021/12/16 06:04:26;;;;;;;18.37;7.90;;;;;;;4.46;81.40;101668.52;1901338;74;21446;-62
2021/12/16 06:06:57;;;;;;;24.02;8.98;;;;;;;4.47;81.42;101663.76;1902926;75;21074;-62
2021/12/16 06:09:26;;;;;;;23.98;8.83;;;;;;;4.48;81.38;101668.53;1910287;74;21554;-65
2021/12/16 06:11:55;;;;;;;30.10;12.35;;;;;;;4.50;81.28;101668.98;1936695;74;21537;-62
2021/12/16 06:14:39;;;;;;;20.88;8.48;;;;;;;4.52;81.23;101665.94;1936580;73;21059;-63
2021/12/16 06:28:04;;;;;;;23.38;9.33;;;;;;;4.70;80.82;101662.89;1903035;75;21079;-61
2021/12/16 06:30:33;;;;;;;21.00;8.18;;;;;;;4.68;80.77;101671.16;1902874;74;21152;-62
2021/12/16 06:33:05;;;;;;;35.70;12.98;;;;;;;4.61;80.82;101668.55;1903024;75;21032;-62
2021/12/16 06:35:34;;;;;;;19.90;9.83;;;;;;;4.61;80.85;101671.16;1897305;74;21048;-61
2021/12/16 06:38:04;;;;;;;20.45;9.53;;;;;;;4.61;80.89;101671.58;1903058;75;21450;-62
2021/12/16 06:40:34;;;;;;;37.33;13.70;;;;;;;4.58;80.95;101676.37;1901883;75;21514;-62
2021/12/16 06:43:08;;;;;;;20.75;9.45;;;;;;;4.56;81.06;101682.02;1904569;74;21083;-63
2021/12/16 06:45:39;;;;;;;24.87;10.00;;;;;;;4.56;81.10;101683.33;1913623;74;21196;-62
2021/12/16 06:48:13;;;;;;;39.75;16.25;;;;;;;4.58;81.17;101685.50;1903119;75;21110;-61
2021/12/16 06:50:46;;;;;;;30.55;12.85;;;;;;;4.60;81.12;101685.06;1901240;75;21044;-61
2021/12/16 06:53:12;;;;;;;22.58;9.40;;;;;;;4.61;81.13;101678.99;1902295;75;21145;-59
2021/12/16 06:55:47;;;;;;;16.67;6.50;;;;;;;4.67;81.07;101681.14;1902871;75;21115;-62
2021/12/16 06:58:27;;;;;;;29.85;10.30;;;;;;;4.68;81.04;101686.81;1902371;74;21209;-61
2021/12/16 07:00:53;;;;;;;23.73;8.83;;;;;;;4.68;81.00;101688.11;1902131;75;21048;-60
2021/12/16 07:03:23;;;;;;;12.13;5.60;;;;;;;4.69;80.97;101687.27;1902905;75;21110;-59
2021/12/16 07:05:56;;;;;;;17.07;6.15;;;;;;;4.68;80.86;101690.72;1902950;75;21083;-61
2021/12/16 07:08:26;;;;;;;18.05;6.78;;;;;;;4.61;80.83;101690.73;1902872;75;21024;-64
2021/12/16 07:10:57;;;;;;;26.23;10.90;;;;;;;4.53;80.74;101692.89;1903179;75;21121;-62
2021/12/16 07:13:37;;;;;;;21.95;7.22;;;;;;;4.39;80.82;101701.98;1902875;75;21023;-61
2021/12/16 07:16:00;;;;;;;13.50;7.45;;;;;;;4.33;80.99;101703.28;1901327;75;21027;-63
2021/12/16 07:18:29;;;;;;;23.55;8.43;;;;;;;4.31;80.89;101705.02;1902986;75;21105;-63
2021/12/16 07:20:57;;;;;;;11.15;4.05;;;;;;;4.24;80.97;101706.31;1858084;77;21131;-62
2021/12/16 07:23:26;;;;;;;10.90;4.90;;;;;;;4.24;80.94;101711.94;1857890;77;21059;-61
2021/12/16 07:25:56;;;;;;;17.25;6.87;;;;;;;4.28;80.89;101710.21;1857896;77;21053;-65
2021/12/16 07:28:27;;;;;;;14.07;5.92;;;;;;;4.29;80.83;101701.53;1857893;77;21057;-64
2021/12/16 07:30:56;;;;;;;13.18;7.33;;;;;;;4.33;80.76;101707.19;1873993;75;21027;-62
2021/12/16 07:33:25;;;;;;;12.80;5.40;;;;;;;4.35;80.63;101711.97;1903008;75;21043;-61
2021/12/16 07:35:55;;;;;;;13.72;5.97;;;;;;;4.30;80.58;101714.58;1903197;75;21105;-61
2021/12/16 07:38:24;;;;;;;18.92;7.47;;;;;;;4.29;80.46;101715.88;1903126;75;21545;-62
2021/12/16 07:40:54;;;;;;;20.55;7.33;;;;;;;4.28;80.33;101712.41;1903105;75;21154;-61
2021/12/16 07:43:53;;;;;;;22.32;8.63;;;;;;;4.28;80.28;101712.81;1902986;75;21098;-62
2021/12/16 07:45:56;;;;;;;31.02;11.57;;;;;;;4.27;80.31;101710.66;1899026;75;21114;-62
2021/12/16 07:48:28;;;;;;;21.70;8.78;;;;;;;4.29;80.28;101710.66;1902884;75;21040;-61
2021/12/16 07:50:58;;;;;;;14.83;5.92;;;;;;;4.32;80.21;101705.02;1903174;70;21181;-64
2021/12/16 07:53:28;;;;;;;18.80;7.17;;;;;;;4.31;80.17;101705.02;1913245;75;21480;-63
2021/12/16 07:55:57;;;;;;;22.32;8.98;;;;;;;4.34;80.16;101701.98;1915621;75;21519;-62
2021/12/16 07:58:26;;;;;;;30.70;10.85;;;;;;;4.35;80.11;101698.94;1917366;75;21051;-58
2021/12/16 08:00:56;;;;;;;24.57;9.00;;;;;;;4.35;80.08;101704.15;1913615;75;21791;-66
2021/12/16 08:03:27;;;;;;;34.00;11.53;;;;;;;4.33;80.11;101700.67;1922071;75;21507;-59
2021/12/16 08:05:59;;;;;;;29.32;9.50;;;;;;;4.34;80.09;101694.60;1922295;75;21113;-60
2021/12/16 08:08:27;;;;;;;30.85;9.20;;;;;;;4.36;80.09;101692.86;1922319;74;21104;-61
2021/12/16 08:10:56;;;;;;;36.73;10.45;;;;;;;4.38;80.08;101680.70;1922301;75;21047;-59
2021/12/16 08:13:26;;;;;;;33.88;10.18;;;;;;;4.34;80.15;101675.91;1922294;75;21063;-59
2021/12/16 08:15:55;;;;;;;31.48;11.30;;;;;;;4.37;80.16;101681.55;1922288;75;21532;-62
2021/12/16 08:18:23;;;;;;;39.88;13.50;;;;;;;4.42;80.13;101674.61;1914724;75;21511;-62
2021/12/16 08:20:52;;;;;;;27.40;9.18;;;;;;;4.48;80.02;101672.44;1913556;75;21018;-61
2021/12/16 08:23:22;;;;;;;33.28;11.15;;;;;;;4.49;79.96;101675.06;1913491;75;21092;-60
2021/12/16 08:25:51;;;;;;;32.13;11.48;;;;;;;4.51;79.88;101668.55;1913560;75;21011;-60
2021/12/16 08:28:22;;;;;;;23.15;9.25;;;;;;;4.50;79.90;101658.55;1913548;75;21039;-62
2021/12/16 08:30:52;;;;;;;21.37;8.13;;;;;;;4.41;79.98;101640.29;1913530;75;21034;-63
2021/12/16 08:33:22;;;;;;;33.15;12.70;;;;;;;4.41;80.01;101638.98;1921670;75;21015;-61
2021/12/16 08:35:53;;;;;;;33.10;11.65;;;;;;;4.45;79.97;101636.81;1922494;75;21449;-59
2021/12/16 08:38:24;;;;;;;33.58;10.35;;;;;;;4.51;79.92;101634.20;1922431;75;21043;-61
2021/12/16 08:40:56;;;;;;;27.93;9.05;;;;;;;4.53;79.91;101631.15;1922562;75;21011;-61
2021/12/16 08:43:24;;;;;;;25.00;8.98;;;;;;;4.55;79.83;101628.10;1919139;75;21078;-61
2021/12/16 08:45:54;;;;;;;38.50;10.45;;;;;;;4.56;79.83;101640.29;1918409;75;21032;-60
2021/12/16 08:48:26;;;;;;;38.95;11.22;;;;;;;4.56;79.79;101635.08;1907809;75;21023;-63
2021/12/16 08:50:55;;;;;;;34.80;12.13;;;;;;;4.57;79.76;101638.09;1895462;75;21132;-61
2021/12/16 08:53:25;;;;;;;33.23;10.50;;;;;;;4.58;79.72;101632.47;1895069;75;21062;-60
2021/12/16 08:55:56;;;;;;;34.90;10.85;;;;;;;4.62;79.69;101631.15;1922422;75;21567;-58
2021/12/16 08:58:26;;;;;;;24.10;8.63;;;;;;;4.64;79.65;101621.58;1922307;75;21039;-60
2021/12/16 09:00:57;;;;;;;31.42;11.30;;;;;;;4.63;79.68;101621.16;1922546;75;21007;-57
2021/12/16 09:03:27;;;;;;;40.67;12.00;;;;;;;4.61;79.71;101617.69;1922355;75;21168;-58
2021/12/16 09:05:56;;;;;;;32.00;11.18;;;;;;;4.60;79.82;101611.16;1911913;75;21852;-58
2021/12/16 09:08:26;;;;;;;26.70;9.48;;;;;;;4.60;79.91;101605.50;1889339;76;21575;-58
2021/12/16 09:10:56;;;;;;;35.35;12.50;;;;;;;4.61;79.93;101607.26;1889438;76;21487;-58
2021/12/16 09:13:26;;;;;;;37.25;12.53;;;;;;;4.63;79.90;101598.98;1889434;76;21043;-58
2021/12/16 09:15:58;;;;;;;29.80;9.68;;;;;;;4.69;79.85;101597.25;1889345;76;21017;-59
2021/12/16 09:18:29;;;;;;;30.40;9.90;;;;;;;4.69;79.83;101597.25;1889526;76;21107;-61
2021/12/16 09:21:00;;;;;;;34.03;11.90;;;;;;;4.71;79.74;101601.59;1889302;76;21044;-61
2021/12/16 09:23:31;;;;;;;17.20;7.15;;;;;;;4.70;79.73;101595.92;1889269;76;21024;-60
2021/12/16 09:25:59;;;;;;;32.05;11.05;;;;;;;4.70;79.75;101588.54;1889567;76;21189;-61
2021/12/16 09:28:29;;;;;;;25.55;9.05;;;;;;;4.72;79.75;101586.80;1889363;76;21107;-60
2021/12/16 09:30:58;;;;;;;39.10;13.58;;;;;;;4.77;79.73;101583.30;1889282;76;21486;-61
2021/12/16 09:33:28;;;;;;;25.68;8.48;;;;;;;4.80;79.67;101575.92;1889354;76;21499;-60
2021/12/16 09:36:00;;;;;;;22.60;8.35;;;;;;;4.80;79.68;101579.84;1889574;76;21534;-60
2021/12/16 09:38:29;;;;;;;21.73;7.33;;;;;;;4.78;79.61;101572.45;1889382;76;21098;-60
2021/12/16 09:40:58;;;;;;;34.70;12.65;;;;;;;4.76;79.70;101573.75;1889352;76;21036;-60
2021/12/16 09:43:30;;;;;;;31.35;12.10;;;;;;;4.77;79.68;101568.09;1913357;75;21079;-59
2021/12/16 09:46:02;;;;;;;24.57;7.17;;;;;;;4.81;79.63;101565.91;1915647;75;21038;-61
2021/12/16 09:48:31;;;;;;;27.15;8.93;;;;;;;4.89;79.51;101561.55;1889452;76;21120;-62
2021/12/16 09:51:04;;;;;;;18.62;7.15;;;;;;;4.97;79.29;101567.61;1920279;73;21538;-60
2021/12/16 09:53:34;;;;;;;35.73;13.40;;;;;;;5.02;79.23;101563.25;1961664;73;21074;-61
2021/12/16 09:56:08;;;;;;;32.13;12.85;;;;;;;5.11;79.10;101558.45;1963612;73;21105;-63
2021/12/16 09:58:39;;;;;;;34.17;11.70;;;;;;;5.18;78.93;101563.19;1963808;73;21046;-61
2021/12/16 10:01:10;;;;;;;34.05;12.37;;;;;;;5.20;78.84;101562.33;1960185;73;21108;-61
2021/12/16 10:03:41;;;;;;;31.75;9.98;;;;;;;5.24;78.77;101551.44;1963589;73;21100;-59
2021/12/16 10:06:10;;;;;;;35.40;12.80;;;;;;;5.31;78.61;101547.05;1952452;73;21005;-62
2021/12/16 10:08:40;;;;;;;22.52;8.28;;;;;;;5.37;78.44;101550.50;1935321;73;21060;-62
2021/12/16 10:11:10;;;;;;;26.82;11.53;;;;;;;5.44;78.29;101554.38;1914415;75;21056;-64
2021/12/16 10:14:00;;;;;;;26.77;9.90;;;;;;;5.52;78.20;101553.92;1961900;73;21022;-61
2021/12/16 10:18:42;;;;;;;27.27;11.05;;;;;;;5.51;77.67;101544.34;1963875;73;20108;-59
2021/12/16 10:21:12;;;;;;;21.42;8.38;;;;;;;5.56;77.59;101530.83;1963641;73;21015;-61
2021/12/16 10:23:44;;;;;;;23.20;9.08;;;;;;;5.64;77.50;101531.63;1963591;73;21199;-60
2021/12/16 10:26:21;;;;;;;25.95;9.28;;;;;;;5.77;77.37;101524.58;1963276;73;21089;-61
2021/12/16 10:28:54;;;;;;;30.92;10.78;;;;;;;5.86;77.25;101526.28;1963643;73;21054;-62
2021/12/16 10:31:25;;;;;;;10.72;5.47;;;;;;;5.85;76.80;101525.87;1963764;73;21007;-64
2021/12/16 10:33:57;;;;;;;38.83;11.35;;;;;;;5.85;76.76;101523.25;1963565;73;21532;-67
2021/12/16 10:36:33;;;;;;;14.40;6.37;;;;;;;5.80;76.58;101516.73;1963915;73;21157;-63
2021/12/16 10:39:10;;;;;;;23.52;8.15;;;;;;;5.73;76.43;101519.81;1943935;73;21489;-63
2021/12/16 10:41:47;;;;;;;27.80;10.23;;;;;;;5.70;76.55;101527.70;1922650;73;21081;-61
2021/12/16 10:44:19;;;;;;;19.17;9.65;;;;;;;5.67;76.42;101519.87;1919342;75;21109;-62
2021/12/16 10:47:02;;;;;;;25.32;10.98;;;;;;;5.66;76.42;101517.26;1901870;75;21036;-61
2021/12/16 10:49:43;;;;;;;20.00;8.00;;;;;;;5.56;76.54;101512.53;1963782;73;21128;-61
2021/12/16 10:52:15;;;;;;;19.95;8.88;;;;;;;5.55;76.68;101513.39;1963725;73;21482;-64
2021/12/16 10:54:47;;;;;;;23.90;11.65;;;;;;;5.54;76.64;101514.29;1963505;73;21203;-64
2021/12/16 10:57:18;;;;;;;26.93;10.20;;;;;;;5.47;76.67;101499.08;1963725;73;21026;-61
2021/12/16 10:59:56;;;;;;;30.30;11.63;;;;;;;5.41;76.79;101511.73;1952309;73;21087;-63
2021/12/16 11:02:30;;;;;;;17.40;8.35;;;;;;;5.41;76.93;101511.73;1921395;75;21040;-63
2021/12/16 11:05:05;;;;;;;19.17;8.05;;;;;;;5.46;77.07;101509.53;1920952;75;21045;-62
2021/12/16 11:07:39;;;;;;;20.15;8.10;;;;;;;5.46;76.94;101510.84;1920992;75;21016;-60
2021/12/16 11:10:30;;;;;;;;;;;;;;;;;;;;;
2021/12/16 11:13:02;;;;;;;34.70;14.65;;;;;;;5.45;77.09;101506.51;2015994;69;21516;-60
2021/12/16 11:15:37;;;;;;;38.33;16.23;;;;;;;5.52;77.11;101505.59;1952089;72;21034;-66
2021/12/16 11:18:14;;;;;;;11.75;5.78;;;;;;;5.55;77.16;101506.86;1976403;72;21025;-64
2021/12/16 11:20:55;;;;;;;34.08;13.70;;;;;;;5.60;77.12;101514.25;1958716;72;21086;-65
2021/12/16 11:23:30;;;;;;;19.20;7.60;;;;;;;5.63;77.01;101511.63;1939962;74;21095;-64
2021/12/16 11:26:02;;;;;;;13.88;6.75;;;;;;;5.64;76.90;101505.50;1941250;74;21122;-61
2021/12/16 11:28:35;;;;;;;12.18;6.50;;;;;;;5.61;76.80;101498.56;1950273;73;21129;-61
2021/12/16 11:31:07;;;;;;;23.65;8.73;;;;;;;5.58;76.78;101504.25;1920670;75;21035;-63
2021/12/16 11:33:51;;;;;;;10.00;4.15;;;;;;;5.55;76.76;101502.53;1918741;74;20978;-62
2021/12/16 11:36:25;;;;;;;24.23;8.78;;;;;;;5.52;76.82;101504.30;1923260;74;21483;-62
2021/12/16 11:38:59;;;;;;;9.78;4.67;;;;;;;5.46;76.91;101505.61;1923941;74;21107;-61
2021/12/16 11:41:36;;;;;;;14.78;7.45;;;;;;;5.42;77.06;101508.68;1924019;74;21171;-61
2021/12/16 11:44:20;;;;;;;17.50;7.70;;;;;;;5.39;77.12;101508.27;1923836;74;21049;-61
2021/12/16 11:46:54;;;;;;;21.23;8.40;;;;;;;5.37;77.21;101509.16;1922242;74;21102;-64
2021/12/16 11:49:34;;;;;;;21.02;7.92;;;;;;;5.38;77.17;101513.50;1922231;74;21057;-64
2021/12/16 11:52:09;;;;;;;11.78;6.17;;;;;;;5.40;77.15;101506.10;1956446;73;21060;-64
2021/12/16 11:54:43;;;;;;;21.52;8.20;;;;;;;5.37;77.21;101509.16;1956558;73;21474;-63
2021/12/16 11:57:24;;;;;;;24.37;9.70;;;;;;;5.31;77.37;101512.67;1956494;73;21032;-64
2021/12/16 11:59:56;;;;;;;15.75;7.80;;;;;;;5.27;77.53;101503.55;1938261;73;21039;-62
2021/12/16 12:02:28;;;;;;;19.10;7.62;;;;;;;5.25;77.63;101511.37;1955892;73;21061;-62
2021/12/16 12:05:16;;;;;;;22.70;8.33;;;;;;;5.28;77.62;101516.60;1972362;72;21023;-63
2021/12/16 12:07:47;;;;;;;16.95;7.75;;;;;;;5.29;77.71;101513.54;1906291;74;21480;-62
2021/12/16 12:10:23;;;;;;;29.37;10.30;;;;;;;5.32;77.75;101518.31;1954459;73;21448;-63
2021/12/16 12:12:49;;;;;;;28.95;11.70;;;;;;;5.39;77.67;101512.19;1934323;72;21023;-61
2021/12/16 12:15:20;;;;;;;18.65;8.70;;;;;;;5.45;77.57;101511.73;1939282;72;21540;-63
2021/12/16 12:17:53;;;;;;;17.48;8.60;;;;;;;5.48;77.50;101516.92;1943750;73;21061;-64
2021/12/16 12:20:27;;;;;;;22.52;8.85;;;;;;;5.48;77.49;101513.00;1926469;72;21473;-62
2021/12/16 12:22:57;;;;;;;19.27;7.53;;;;;;;5.48;77.49;101516.92;1913265;75;21047;-67
2021/12/16 12:25:26;;;;;;;25.02;10.48;;;;;;;5.47;77.51;101509.98;1911779;75;21107;-65
2021/12/16 12:27:55;;;;;;;22.58;7.60;;;;;;;5.46;77.49;101510.84;1935937;73;21140;-62
2021/12/16 12:30:24;;;;;;;20.43;8.10;;;;;;;5.46;77.53;101512.14;1959924;73;21034;-64
2021/12/16 12:32:54;;;;;;;31.12;12.33;;;;;;;5.43;77.65;101506.51;1959949;73;21015;-64
2021/12/16 12:35:25;;;;;;;26.15;10.48;;;;;;;5.44;77.68;101514.79;1960036;73;21546;-63
2021/12/16 12:37:57;;;;;;;30.10;10.85;;;;;;;5.46;77.68;101521.28;1959869;73;20995;-64
2021/12/16 12:40:32;;;;;;;24.80;9.33;;;;;;;5.46;77.71;101527.40;1960671;72;21108;-65
2021/12/16 12:43:01;;;;;;;22.15;8.15;;;;;;;5.44;77.82;101530.47;1960133;73;21054;-65
2021/12/16 12:45:36;;;;;;;29.95;11.15;;;;;;;5.42;77.87;101524.34;1960276;73;21046;-69
2021/12/16 12:48:07;;;;;;;22.48;9.00;;;;;;;5.36;78.05;101520.47;1926145;74;21046;-69
2021/12/16 12:50:39;;;;;;;10.10;5.67;;;;;;;5.35;78.10;101517.00;1904490;75;21035;-66
2021/12/16 12:53:30;;;;;;;37.20;13.45;;;;;;;5.35;78.14;101515.70;1907976;75;21161;-64
2021/12/16 12:56:01;;;;;;;29.25;12.00;;;;;;;5.36;78.16;101513.94;1922317;75;21016;-65
2021/12/16 12:58:33;;;;;;;27.70;11.20;;;;;;;5.35;78.19;101518.31;1888008;76;21504;-64
2021/12/16 13:01:03;;;;;;;32.00;10.53;;;;;;;5.39;78.18;101512.63;1879077;76;21035;-64
2021/12/16 13:03:35;;;;;;;32.98;10.40;;;;;;;5.43;78.13;101512.18;1929490;73;21682;-65
2021/12/16 13:06:18;;;;;;;35.80;12.25;;;;;;;5.46;78.05;101521.28;1891311;74;21048;-67
2021/12/16 13:08:49;;;;;;;28.98;8.85;;;;;;;5.45;78.06;101517.81;1922451;75;21030;-66
2021/12/16 13:11:27;;;;;;;30.00;10.43;;;;;;;5.45;78.17;101521.73;1922326;75;21505;-65
2021/12/16 13:14:15;;;;;;;35.60;11.15;;;;;;;5.46;78.11;101526.09;1924778;74;21132;-67
2021/12/16 13:26:06;;;;;;;29.20;11.73;;;;;;;5.54;78.09;101527.35;1940794;73;21060;-57
2021/12/16 13:28:26;;;;;;;28.00;9.10;;;;;;;5.57;77.97;101520.78;1945777;73;21078;-58
2021/12/16 13:31:03;;;;;;;24.63;11.43;;;;;;;5.57;78.00;101529.52;1930246;73;21036;-59
2021/12/16 13:33:26;;;;;;;28.05;10.82;;;;;;;5.54;78.08;101541.72;1895293;75;21115;-57
2021/12/16 13:36:26;;;;;;;35.15;12.73;;;;;;;5.53;78.15;101543.89;1959607;73;21096;-58
2021/12/16 13:38:50;;;;;;;34.13;11.15;;;;;;;5.52;78.20;101543.03;1960020;73;20999;-59
2021/12/16 13:41:21;;;;;;;34.80;12.10;;;;;;;5.56;78.13;101546.05;1959691;73;21136;-58
2021/12/16 13:44:07;;;;;;;26.55;10.45;;;;;;;5.58;78.08;101547.35;1957860;73;21030;-58
2021/12/16 14:06:53;;;;;;;30.48;9.93;;;;;;;5.64;78.12;101526.41;1950139;73;21041;-58
2021/12/16 14:09:17;;;;;;;31.25;11.15;;;;;;;5.63;78.24;101539.51;1947794;73;21022;-57
2021/12/16 14:18:01;;;;;;;28.17;10.58;;;;;;;5.63;78.44;101529.05;1950154;73;21034;-55
2021/12/16 14:23:17;;;;;;;26.68;11.00;;;;;;;5.67;78.28;101537.30;1914815;73;21044;-57
2021/12/16 14:26:08;;;;;;;31.33;11.15;;;;;;;5.76;78.50;101535.48;1985727;72;21043;-56
2021/12/16 14:42:18;;;;;;;35.25;12.15;;;;;;;5.82;78.15;101550.70;1924548;73;21181;-57
2021/12/16 14:50:26;;;;;;;35.33;12.18;;;;;;;5.84;78.22;101543.27;1889823;76;21128;-58